Time;durP1;ratioP1;P1;durP2;ratioP2;P2;SDS_P1;SDS_P2;PMS_P1;PMS_P2;Temp;Humidity;BMP_temperature;BMP_pressure;BME280_temperature;BME280_humidity;BME280_pressure;Samples;Min_cycle;Max_cycle;Signal;HPM_P1;HPM_P2
2021/10/02 00:02:19;;;;;;;;;;;;;;;11.39;73.78;98640.19;1633159;87;20632;-87
2021/10/02 00:45:25;;;;;;;;;;;;;;;11.10;74.12;98600.30;1622091;87;24852;-85
2021/10/02 00:47:52;;;;;;;;;;;;;;;11.03;74.15;98602.96;1635570;86;21947;-85
2021/10/02 00:50:19;;;;;;;;;;;;;;;10.95;74.17;98598.74;1635671;86;26049;-85
2021/10/02 00:52:46;;;;;;;;;;;;;;;10.89;74.20;98602.61;1623652;86;24548;-85
2021/10/02 00:55:12;;;;;;;;;;;;;;;10.88;74.25;98600.09;1625246;86;20283;-83
2021/10/02 00:57:38;;;;;;;;;;;;;;;10.89;74.28;98594.77;1627294;87;24731;-87
2021/10/02 01:00:04;;;;;;;;;;;;;;;10.85;74.34;98595.92;1622080;87;21982;-87
2021/10/02 01:02:38;;;;;;;;;;;;;;;10.75;74.39;98585.69;1616342;87;26069;-87
2021/10/02 01:05:23;;;;;;;;;;;;;;;10.66;74.41;98588.94;1621584;87;24365;-84
2021/10/02 01:07:51;;;;;;;;;;;;;;;10.60;74.48;98587.20;1633508;86;20307;-83
2021/10/02 01:10:26;;;;;;;;;;;;;;;10.59;74.57;98584.20;1629273;84;24762;-83
2021/10/02 01:13:10;;;;;;;;;;;;;;;10.55;74.65;98580.12;1625378;85;22175;-83
2021/10/02 01:15:38;;;;;;;;;;;;;;;10.59;74.75;98580.28;1599636;89;26042;-85
2021/10/02 01:18:11;;;;;;;;;;;;;;;10.58;74.84;98582.09;1604124;87;24621;-86
2021/10/02 01:20:56;;;;;;;;;;;;;;;10.62;74.94;98582.70;1626171;87;20197;-86
2021/10/02 01:23:40;;;;;;;;;;;;;;;10.70;75.03;98584.32;1626441;87;24808;-86
2021/10/02 01:26:17;;;;;;;;;;;;;;;10.80;75.14;98579.66;1620888;87;22021;-87
2021/10/02 01:28:44;;;;;;;;;;;;;;;10.82;75.23;98572.55;1609409;86;26852;-87
2021/10/02 01:33:52;;;;;;;;;;;;;;;10.73;75.38;98568.42;1605626;87;20547;-87
2021/10/02 01:36:40;;;;;;;;;;;;;;;10.69;75.47;98573.51;1617120;87;24776;-86
2021/10/02 01:47:27;;;;;;;;;;;;;;;10.48;75.75;98558.30;1601950;88;20467;-82
2021/10/02 01:49:55;;;;;;;;;;;;;;;10.51;75.85;98566.42;1627597;86;24886;-87
2021/10/02 01:52:26;;;;;;;;;;;;;;;10.58;75.92;98558.54;1626173;86;22135;-87
2021/10/02 01:54:54;;;;;;;;;;;;;;;10.72;76.02;98566.74;1626038;86;26098;-88
2021/10/02 01:57:22;;;;;;;;;;;;;;;10.73;76.14;98560.57;1625385;86;24453;-88
2021/10/02 01:59:48;;;;;;;;;;;;;;;10.71;76.22;98561.13;1626811;86;20287;-83
2021/10/02 02:02:15;;;;;;;;;;;;;;;10.69;76.29;98556.50;1625120;86;24886;-82
2021/10/02 02:04:42;;;;;;;;;;;;;;;10.66;76.34;98554.07;1626079;86;21953;-86
2021/10/02 02:07:09;;;;;;;;;;;;;;;10.55;76.39;98552.66;1625518;86;26064;-86
2021/10/02 02:09:39;;;;;;;;;;;;;;;10.58;76.46;98551.16;1628153;86;24521;-85
2021/10/02 02:12:07;;;;;;;;;;;;;;;10.66;76.53;98547.53;1632044;86;20458;-85
2021/10/02 02:14:35;;;;;;;;;;;;;;;10.71;76.60;98543.66;1630166;86;24907;-86
2021/10/02 02:17:06;;;;;;;;;;;;;;;10.67;76.66;98544.81;1630136;86;22006;-83
2021/10/02 02:19:38;;;;;;;;;;;;;;;10.67;76.71;98545.28;1629922;86;26882;-85
2021/10/02 02:22:04;;;;;;;;;;;;;;;10.70;76.78;98537.20;1632197;86;24640;-86
2021/10/02 02:24:31;;;;;;;;;;;;;;;10.64;76.84;98537.63;1629875;86;20495;-87
2021/10/02 02:26:57;;;;;;;;;;;;;;;10.60;76.86;98536.16;1631632;86;24759;-87
2021/10/02 02:29:25;;;;;;;;;;;;;;;10.51;76.89;98534.19;1630873;86;22755;-87
2021/10/02 02:31:52;;;;;;;;;;;;;;;10.55;76.98;98538.26;1631438;86;26003;-87
2021/10/02 02:34:18;;;;;;;;;;;;;;;10.47;76.98;98533.06;1630485;86;24437;-87
2021/10/02 02:36:44;;;;;;;;;;;;;;;10.45;77.03;98528.90;1631049;86;20257;-87
2021/10/02 02:39:17;;;;;;;;;;;;;;;10.36;77.07;98529.06;1632822;86;24754;-87
2021/10/02 02:41:46;;;;;;;;;;;;;;;10.33;77.12;98527.10;1631821;86;22930;-87
2021/10/02 02:44:12;;;;;;;;;;;;;;;10.37;77.21;98520.71;1633064;86;26089;-87
2021/10/02 02:46:42;;;;;;;;;;;;;;;10.39;77.26;98520.99;1632451;86;24527;-86
2021/10/02 02:49:22;;;;;;;;;;;;;;;10.42;77.35;98520.77;1632801;86;20288;-85
2021/10/02 02:52:05;;;;;;;;;;;;;;;10.40;77.41;98520.05;1630432;86;24776;-86
2021/10/02 02:54:35;;;;;;;;;;;;;;;10.43;77.47;98519.83;1631931;86;22054;-86
2021/10/02 02:57:11;;;;;;;;;;;;;;;10.43;77.53;98524.22;1631509;85;26888;-85
2021/10/02 02:59:39;;;;;;;;;;;;;;;10.41;77.60;98518.28;1666878;84;24489;-82
2021/10/02 03:02:06;;;;;;;;;;;;;;;10.44;77.66;98525.91;1636505;84;20173;-83
2021/10/02 03:04:34;;;;;;;;;;;;;;;10.41;77.73;98519.59;1631793;86;24815;-83
2021/10/02 03:07:02;;;;;;;;;;;;;;;10.44;77.78;98527.22;1631378;86;22063;-83
2021/10/02 03:09:29;;;;;;;;;;;;;;;10.43;77.84;98521.14;1632054;86;25981;-85
2021/10/02 03:11:57;;;;;;;;;;;;;;;10.47;77.91;98517.87;1635265;86;25548;-85
2021/10/02 03:14:24;;;;;;;;;;;;;;;10.47;77.96;98511.33;1636125;86;20237;-87
2021/10/02 03:16:51;;;;;;;;;;;;;;;10.50;78.04;98517.64;1636736;86;24739;-87
2021/10/02 03:19:18;;;;;;;;;;;;;;;10.54;78.10;98516.48;1636061;86;22076;-87
2021/10/02 03:21:45;;;;;;;;;;;;;;;10.53;78.20;98509.57;1636073;86;25970;-87
2021/10/02 03:24:13;;;;;;;;;;;;;;;10.51;78.25;98506.24;1635993;86;24500;-87
2021/10/02 03:26:42;;;;;;;;;;;;;;;10.52;78.35;98503.16;1636096;86;20164;-87
2021/10/02 03:29:08;;;;;;;;;;;;;;;10.59;78.44;98504.39;1636592;86;24760;-87
2021/10/02 03:31:37;;;;;;;;;;;;;;;10.59;78.54;98500.00;1635843;86;22717;-88
2021/10/02 03:34:03;;;;;;;;;;;;;;;10.62;78.64;98502.89;1635616;86;26014;-87
2021/10/02 03:36:30;;;;;;;;;;;;;;;10.63;78.72;98490.17;1636241;86;24603;-86
2021/10/02 03:38:57;;;;;;;;;;;;;;;10.66;78.81;98492.09;1635751;86;20256;-87
2021/10/02 03:41:23;;;;;;;;;;;;;;;10.67;78.90;98494.25;1636218;86;24806;-88
2021/10/02 03:43:49;;;;;;;;;;;;;;;10.68;78.99;98490.22;1636132;86;20315;-87
2021/10/02 03:46:16;;;;;;;;;;;;;;;10.73;79.08;98497.28;1633990;86;26011;-86
2021/10/02 03:48:42;;;;;;;;;;;;;;;10.77;79.18;98488.27;1635881;86;24486;-85
2021/10/02 03:51:09;;;;;;;;;;;;;;;10.83;79.28;98487.00;1612546;87;20233;-86
2021/10/02 03:53:35;;;;;;;;;;;;;;;10.87;79.38;98489.76;1636129;86;24818;-85
2021/10/02 03:56:06;;;;;;;;;;;;;;;10.89;79.48;98496.58;1635848;86;22058;-88
2021/10/02 03:58:32;;;;;;;;;;;;;;;10.94;79.57;98489.70;1636158;86;26100;-87
2021/10/02 04:00:58;;;;;;;;;;;;;;;10.99;79.69;98489.38;1636025;86;24398;-88
2021/10/02 04:03:25;;;;;;;;;;;;;;;11.05;79.74;98493.71;1636241;86;20262;-89
2021/10/02 04:05:51;;;;;;;;;;;;;;;11.12;79.84;98493.65;1636146;86;24821;-88
2021/10/02 04:08:18;;;;;;;;;;;;;;;11.16;79.92;98485.93;1635273;86;21995;-83
2021/10/02 04:10:44;;;;;;;;;;;;;;;11.21;80.02;98492.98;1628409;86;25994;-87
2021/10/02 04:13:10;;;;;;;;;;;;;;;11.26;80.09;98493.96;1624191;86;24519;-87
2021/10/02 04:15:36;;;;;;;;;;;;;;;11.23;80.14;98495.50;1623988;86;20237;-83
2021/10/02 04:18:03;;;;;;;;;;;;;;;11.25;80.22;98489.19;1625260;86;20343;-83
2021/10/02 04:20:29;;;;;;;;;;;;;;;11.28;80.27;98488.98;1624269;86;21924;-86
2021/10/02 04:22:56;;;;;;;;;;;;;;;11.30;80.31;98493.63;1624763;86;26884;-86
2021/10/02 04:25:22;;;;;;;;;;;;;;;11.29;80.36;98487.21;1623384;86;24402;-85
2021/10/02 04:27:52;;;;;;;;;;;;;;;11.26;80.40;98483.01;1625467;86;20439;-87
2021/10/02 04:30:18;;;;;;;;;;;;;;;11.32;80.42;98489.12;1623439;86;24817;-87
2021/10/02 04:32:49;;;;;;;;;;;;;;;11.35;80.49;98489.86;1623896;86;22042;-87
2021/10/02 04:35:15;;;;;;;;;;;;;;;11.35;80.54;98490.67;1626446;86;26108;-87
2021/10/02 04:37:41;;;;;;;;;;;;;;;11.35;80.56;98489.36;1623562;86;24406;-87
2021/10/02 04:40:07;;;;;;;;;;;;;;;11.31;80.61;98485.30;1623538;86;20291;-87
2021/10/02 04:42:33;;;;;;;;;;;;;;;11.33;80.65;98485.56;1625907;86;24809;-86
2021/10/02 04:44:59;;;;;;;;;;;;;;;11.35;80.66;98487.24;1623713;86;22029;-88
2021/10/02 04:47:26;;;;;;;;;;;;;;;11.39;80.73;98488.22;1622603;86;26059;-87
2021/10/02 04:49:53;;;;;;;;;;;;;;;11.43;80.75;98491.44;1625000;88;24475;-87
2021/10/02 04:52:19;;;;;;;;;;;;;;;11.47;80.81;98498.13;1623105;86;20293;-88
2021/10/02 04:54:45;;;;;;;;;;;;;;;11.51;80.87;98501.72;1624543;86;24629;-87
2021/10/02 04:57:11;;;;;;;;;;;;;;;11.53;80.91;98510.31;1623933;86;22177;-86
2021/10/02 04:59:37;;;;;;;;;;;;;;;11.59;80.92;98503.32;1625332;86;26091;-86
2021/10/02 05:02:03;;;;;;;;;;;;;;;11.63;80.96;98509.17;1622676;86;24621;-88
2021/10/02 05:04:30;;;;;;;;;;;;;;;11.55;80.95;98506.28;1624349;86;20261;-87
2021/10/02 05:06:56;;;;;;;;;;;;;;;11.53;80.97;98509.00;1623229;86;20215;-88
2021/10/02 05:09:22;;;;;;;;;;;;;;;11.52;80.99;98507.33;1655388;85;21862;-88
2021/10/02 05:11:53;;;;;;;;;;;;;;;11.47;80.99;98508.61;1624503;86;26639;-83
2021/10/02 05:14:19;;;;;;;;;;;;;;;11.50;81.02;98507.93;1625974;86;24547;-83
2021/10/02 05:16:51;;;;;;;;;;;;;;;11.44;81.03;98504.91;1627228;86;20243;-88
2021/10/02 05:19:17;;;;;;;;;;;;;;;11.38;81.05;98504.88;1626808;86;24824;-90
2021/10/02 05:21:43;;;;;;;;;;;;;;;11.38;81.07;98502.73;1650754;85;20909;-86
2021/10/02 05:24:09;;;;;;;;;;;;;;;11.40;81.13;98502.16;1626253;86;21125;-85
2021/10/02 05:26:35;;;;;;;;;;;;;;;11.44;81.18;98507.53;1624844;86;20224;-84
2021/10/02 05:29:01;;;;;;;;;;;;;;;11.48;81.22;98507.20;1624136;87;20233;-84
2021/10/02 05:31:27;;;;;;;;;;;;;;;11.56;81.28;98510.58;1625382;86;24840;-84
2021/10/02 05:33:54;;;;;;;;;;;;;;;11.63;81.35;98506.08;1624751;86;21374;-85
2021/10/02 05:36:20;;;;;;;;;;;;;;;11.74;81.41;98507.94;1626523;86;25825;-84
2021/10/02 05:38:46;;;;;;;;;;;;;;;11.82;81.48;98508.70;1624714;86;24707;-85
2021/10/02 05:41:15;;;;;;;;;;;;;;;11.83;81.54;98516.47;1625581;86;20339;-87
2021/10/02 05:43:41;;;;;;;;;;;;;;;11.83;81.57;98518.25;1625859;86;24740;-89
2021/10/02 05:46:07;;;;;;;;;;;;;;;11.83;81.59;98516.47;1627356;86;22071;-88
2021/10/02 05:48:34;;;;;;;;;;;;;;;11.88;81.59;98516.13;1625168;86;25980;-88
2021/10/02 05:50:59;;;;;;;;;;;;;;;11.95;81.64;98517.31;1627046;86;20239;-88
2021/10/02 05:53:25;;;;;;;;;;;;;;;12.00;81.68;98516.03;1625830;88;20251;-88
2021/10/02 05:55:52;;;;;;;;;;;;;;;12.05;81.71;98513.92;1593230;88;26179;-88
2021/10/02 05:58:18;;;;;;;;;;;;;;;12.06;81.72;98515.58;1627190;86;21972;-88
2021/10/02 06:00:44;;;;;;;;;;;;;;;12.11;81.76;98521.31;1624752;86;26036;-85
2021/10/02 06:03:11;;;;;;;;;;;;;;;12.16;81.76;98519.69;1624931;86;24446;-84
2021/10/02 06:05:37;;;;;;;;;;;;;;;12.21;81.78;98523.27;1626108;86;20213;-84
2021/10/02 06:08:03;;;;;;;;;;;;;;;12.31;81.82;98530.80;1625573;86;24812;-84
2021/10/02 06:10:29;;;;;;;;;;;;;;;12.38;81.85;98524.95;1627784;86;22027;-88
2021/10/02 06:12:55;;;;;;;;;;;;;;;12.44;81.89;98527.59;1631427;86;21104;-88
2021/10/02 06:15:27;;;;;;;;;;;;;;;12.52;81.92;98533.11;1632232;86;23870;-88
2021/10/02 06:17:51;;;;;;;;;;;;;;;12.58;81.93;98532.18;1633072;86;20228;-89
2021/10/02 06:20:20;;;;;;;;;;;;;;;12.66;81.95;98532.88;1631066;86;24823;-90
2021/10/02 06:22:46;;;;;;;;;;;;;;;12.72;81.96;98533.73;1627808;86;22074;-90
2021/10/02 06:25:13;;;;;;;;;;;;;;;12.78;81.95;98536.36;1630134;86;25971;-85
2021/10/02 06:27:39;;;;;;;;;;;;;;;12.83;81.93;98538.99;1632012;86;24505;-84
2021/10/02 06:30:07;;;;;;;;;;;;;;;12.93;81.94;98545.67;1629056;86;20378;-84
2021/10/02 06:32:39;;;;;;;;;;;;;;;13.02;81.95;98540.20;1630872;86;24867;-89
2021/10/02 06:35:05;;;;;;;;;;;;;;;13.07;81.96;98542.83;1631142;86;22162;-89
2021/10/02 06:37:31;;;;;;;;;;;;;;;13.14;81.95;98543.22;1631204;86;26255;-88
2021/10/02 06:39:57;;;;;;;;;;;;;;;13.20;81.91;98545.37;1631639;86;24478;-87
2021/10/02 06:42:23;;;;;;;;;;;;;;;13.24;81.87;98537.59;1632202;86;20253;-88
2021/10/02 06:44:52;;;;;;;;;;;;;;;13.28;81.84;98539.02;1630216;86;20227;-88
2021/10/02 06:47:18;;;;;;;;;;;;;;;13.35;81.84;98546.78;1631589;86;22167;-88
2021/10/02 06:49:44;;;;;;;;;;;;;;;13.44;81.83;98549.15;1630731;86;26207;-88
2021/10/02 06:52:10;;;;;;;;;;;;;;;13.50;81.78;98547.34;1630734;86;24418;-87
2021/10/02 06:54:36;;;;;;;;;;;;;;;13.57;81.77;98548.06;1630619;86;20235;-84
2021/10/02 06:57:04;;;;;;;;;;;;;;;13.65;81.75;98543.00;1630570;86;24802;-85
2021/10/02 06:59:33;;;;;;;;;;;;;;;13.71;81.75;98540.36;1630470;86;22069;-87
2021/10/02 07:02:00;;;;;;;;;;;;;;;13.79;81.73;98536.16;1630882;87;26065;-84
2021/10/02 07:04:32;;;;;;;;;;;;;;;13.83;81.70;98542.84;1630027;86;25408;-83
2021/10/02 07:06:58;;;;;;;;;;;;;;;13.89;81.62;98544.62;1632706;86;20252;-84
2021/10/02 07:09:25;;;;;;;;;;;;;;;13.87;81.55;98539.95;1628982;86;24729;-85
2021/10/02 07:11:51;;;;;;;;;;;;;;;13.93;81.49;98542.08;1631211;86;22055;-84
2021/10/02 07:14:17;;;;;;;;;;;;;;;13.97;81.43;98540.38;1631483;86;26082;-84
2021/10/02 07:16:43;;;;;;;;;;;;;;;14.00;81.33;98538.84;1610004;87;24547;-84
2021/10/02 07:19:09;;;;;;;;;;;;;;;14.06;81.26;98542.28;1628593;86;20208;-84
2021/10/02 07:21:35;;;;;;;;;;;;;;;14.11;81.19;98536.16;1630218;86;24754;-88
2021/10/02 07:24:01;;;;;;;;;;;;;;;14.19;81.13;98537.66;1631426;86;22047;-88
2021/10/02 07:26:27;;;;;;;;;;;;;;;14.24;81.06;98540.73;1631500;86;26052;-86
2021/10/02 07:28:53;;;;;;;;;;;;;;;14.30;81.02;98539.88;1631244;86;20295;-86
2021/10/02 07:31:20;;;;;;;;;;;;;;;14.35;80.93;98545.59;1632778;86;20320;-85
2021/10/02 07:33:48;;;;;;;;;;;;;;;14.41;80.87;98548.58;1628552;86;24713;-86
2021/10/02 07:36:21;;;;;;;;;;;;;;;14.45;80.75;98549.19;1631859;86;22726;-88
2021/10/02 07:38:48;;;;;;;;;;;;;;;14.48;80.59;98547.12;1629336;86;26099;-86
2021/10/02 07:41:16;;;;;;;;;;;;;;;14.56;80.38;98548.61;1631460;87;38374;-84
2021/10/02 07:43:44;;;;;;;;;;;;;;;14.64;80.20;98551.92;1630444;86;20333;-85
2021/10/02 07:46:11;;;;;;;;;;;;;;;14.71;80.08;98557.03;1628674;86;24821;-85
2021/10/02 07:48:38;;;;;;;;;;;;;;;14.78;79.95;98556.04;1630553;86;22053;-84
2021/10/02 07:51:05;;;;;;;;;;;;;;;14.84;79.84;98557.64;1632663;86;26004;-85
2021/10/02 07:53:33;;;;;;;;;;;;;;;14.88;79.71;98557.76;1631394;86;25165;-86
2021/10/02 07:56:01;;;;;;;;;;;;;;;14.95;79.58;98552.77;1631191;86;20420;-85
2021/10/02 07:58:27;;;;;;;;;;;;;;;14.99;79.45;98556.36;1630608;86;24813;-89
2021/10/02 08:00:54;;;;;;;;;;;;;;;15.07;79.32;98559.63;1630344;86;21941;-88
2021/10/02 08:03:20;;;;;;;;;;;;;;;15.10;79.21;98550.64;1632107;86;25970;-87
2021/10/02 08:05:47;;;;;;;;;;;;;;;15.14;79.07;98550.23;1630892;86;24408;-83
2021/10/02 08:08:17;;;;;;;;;;;;;;;15.21;78.89;98555.34;1630004;86;20554;-83
2021/10/02 08:10:44;;;;;;;;;;;;;;;15.25;78.72;98544.03;1630490;85;24255;-85
2021/10/02 08:13:15;;;;;;;;;;;;;;;15.30;78.53;98553.21;1656440;86;21982;-89
2021/10/02 08:15:43;;;;;;;;;;;;;;;15.34;78.36;98551.97;1652834;86;26021;-89
2021/10/02 08:18:14;;;;;;;;;;;;;;;15.39;78.18;98551.08;1638751;86;25374;-88
2021/10/02 08:20:42;;;;;;;;;;;;;;;15.45;78.05;98551.03;1651964;85;20472;-88
2021/10/02 08:23:18;;;;;;;;;;;;;;;15.50;77.91;98557.56;1649679;86;24740;-88
2021/10/02 08:25:48;;;;;;;;;;;;;;;15.55;77.81;98552.42;1651291;86;21953;-87
2021/10/02 08:28:15;;;;;;;;;;;;;;;15.59;77.65;98548.06;1650450;86;26055;-85
2021/10/02 08:30:42;;;;;;;;;;;;;;;15.63;77.47;98555.20;1655190;85;25139;-89
2021/10/02 08:33:12;;;;;;;;;;;;;;;15.65;77.31;98562.03;1652977;86;20488;-88
2021/10/02 08:35:39;;;;;;;;;;;;;;;15.70;77.20;98555.86;1646779;86;24768;-89
2021/10/02 08:38:06;;;;;;;;;;;;;;;15.76;77.06;98552.67;1652571;86;22000;-85
2021/10/02 08:40:33;;;;;;;;;;;;;;;15.79;76.88;98549.75;1624847;86;26066;-88
2021/10/02 08:42:59;;;;;;;;;;;;;;;15.82;76.71;98552.09;1654957;86;24489;-84
2021/10/02 08:45:26;;;;;;;;;;;;;;;15.86;76.48;98550.05;1658262;86;20295;-88
2021/10/02 08:47:53;;;;;;;;;;;;;;;15.92;76.22;98556.09;1656506;86;24927;-88
2021/10/02 08:50:19;;;;;;;;;;;;;;;15.98;75.98;98549.43;1648252;86;22928;-88
2021/10/02 08:52:46;;;;;;;;;;;;;;;16.02;75.80;98546.86;1648201;86;25396;-85
2021/10/02 08:55:15;;;;;;;;;;;;;;;16.10;75.70;98549.14;1651796;86;24448;-89
2021/10/02 08:57:42;;;;;;;;;;;;;;;16.15;75.54;98546.91;1655608;86;20444;-85
2021/10/02 09:00:10;;;;;;;;;;;;;;;16.16;75.33;98547.75;1648793;85;24744;-87
2021/10/02 09:02:36;;;;;;;;;;;;;;;16.21;75.08;98546.84;1649014;86;22226;-88
2021/10/02 09:05:04;;;;;;;;;;;;;;;16.24;74.87;98536.02;1652406;86;25989;-88
2021/10/02 09:07:33;;;;;;;;;;;;;;;16.29;74.57;98545.19;1650590;86;24604;-88
2021/10/02 09:10:02;;;;;;;;;;;;;;;16.33;74.33;98550.53;1685195;84;20495;-88
2021/10/02 09:12:28;;;;;;;;;;;;;;;16.38;74.05;98550.58;1638730;86;24831;-87
2021/10/02 09:14:56;;;;;;;;;;;;;;;16.43;73.80;98547.03;1638829;86;21982;-88
2021/10/02 09:17:22;;;;;;;;;;;;;;;16.44;73.58;98542.94;1627929;86;26160;-88
2021/10/02 09:19:49;;;;;;;;;;;;;;;16.46;73.35;98547.61;1629115;86;23985;-89
2021/10/02 09:22:18;;;;;;;;;;;;;;;16.51;73.12;98545.86;1635057;86;20332;-89
2021/10/02 09:24:45;;;;;;;;;;;;;;;16.56;72.86;98546.27;1636746;86;24655;-89
2021/10/02 09:27:16;;;;;;;;;;;;;;;16.61;72.57;98548.02;1635634;86;22072;-85
2021/10/02 09:29:44;;;;;;;;;;;;;;;16.67;72.32;98543.48;1627823;86;26248;-85
2021/10/02 09:32:14;;;;;;;;;;;;;;;16.72;72.14;98539.92;1645505;86;24579;-88
2021/10/02 09:34:55;;;;;;;;;;;;;;;16.78;71.94;98542.00;1632165;86;20320;-88
2021/10/02 09:37:31;;;;;;;;;;;;;;;16.80;71.74;98541.35;1627319;86;24750;-89
2021/10/02 09:40:03;;;;;;;;;;;;;;;16.88;71.62;98539.33;1639138;85;22205;-84
2021/10/02 09:42:37;;;;;;;;;;;;;;;16.93;71.51;98541.05;1636222;85;26030;-84
2021/10/02 09:45:05;;;;;;;;;;;;;;;16.98;71.35;98544.92;1643168;86;25197;-84
2021/10/02 09:47:32;;;;;;;;;;;;;;;17.01;71.18;98540.69;1629265;86;20202;-84
2021/10/02 09:50:01;;;;;;;;;;;;;;;17.05;70.89;98537.25;1638438;86;25444;-87
2021/10/02 09:52:31;;;;;;;;;;;;;;;17.08;70.68;98531.17;1629112;86;22060;-84
2021/10/02 09:54:58;;;;;;;;;;;;;;;17.13;70.46;98539.50;1646315;86;26825;-87
2021/10/02 09:57:25;;;;;;;;;;;;;;;17.15;70.22;98540.20;1636040;86;24413;-87
2021/10/02 09:59:54;;;;;;;;;;;;;;;17.18;70.03;98531.16;1634641;86;20237;-87
2021/10/02 10:02:25;;;;;;;;;;;;;;;17.26;69.83;98533.05;1634439;86;24832;-84
2021/10/02 10:04:53;;;;;;;;;;;;;;;17.33;69.66;98531.48;1634870;86;22745;-85
2021/10/02 10:07:19;;;;;;;;;;;;;;;17.39;69.47;98526.94;1635282;86;26014;-83
2021/10/02 10:09:59;;;;;;;;;;;;;;;17.44;69.33;98532.61;1634978;86;24591;-87
2021/10/02 10:12:26;;;;;;;;;;;;;;;17.51;69.23;98524.44;1631884;86;20229;-83
2021/10/02 10:14:52;;;;;;;;;;;;;;;17.57;69.13;98533.08;1644359;86;25019;-84
2021/10/02 10:17:18;;;;;;;;;;;;;;;17.58;68.92;98521.03;1637952;86;20326;-84
2021/10/02 10:19:46;;;;;;;;;;;;;;;17.62;68.68;98529.52;1633868;86;26053;-83
2021/10/02 10:22:20;;;;;;;;;;;;;;;17.68;68.54;98526.28;1632598;86;25259;-83
2021/10/02 10:24:56;;;;;;;;;;;;;;;17.70;68.36;98520.36;1636591;86;20238;-83
2021/10/02 10:27:32;;;;;;;;;;;;;;;17.71;68.15;98522.52;1643790;85;24906;-83
2021/10/02 10:30:06;;;;;;;;;;;;;;;17.71;67.92;98522.03;1637820;86;22175;-83
2021/10/02 10:32:33;;;;;;;;;;;;;;;17.75;67.67;98520.74;1642195;86;25991;-83
2021/10/02 10:34:59;;;;;;;;;;;;;;;17.82;67.52;98517.01;1641260;86;24494;-83
2021/10/02 10:37:26;;;;;;;;;;;;;;;17.88;67.32;98523.87;1618265;86;20218;-87
2021/10/02 10:39:58;;;;;;;;;;;;;;;17.91;67.12;98523.55;1642116;86;24722;-87
2021/10/02 10:42:28;;;;;;;;;;;;;;;17.92;66.88;98522.57;1650760;86;22069;-87
2021/10/02 10:44:58;;;;;;;;;;;;;;;17.96;66.68;98519.95;1635674;86;25962;-87
2021/10/02 10:47:24;;;;;;;;;;;;;;;18.03;66.59;98520.67;1603995;86;24368;-86
2021/10/02 10:49:51;;;;;;;;;;;;;;;18.07;66.44;98520.70;1635156;86;20221;-87
2021/10/02 10:52:19;;;;;;;;;;;;;;;18.10;66.27;98514.63;1636357;86;24742;-87
2021/10/02 10:54:50;;;;;;;;;;;;;;;18.11;66.08;98504.88;1640177;86;21977;-87
2021/10/02 10:57:33;;;;;;;;;;;;;;;18.15;65.86;98503.08;1616103;86;26592;-87
2021/10/02 11:00:03;;;;;;;;;;;;;;;18.20;65.71;98511.40;1636188;86;24511;-88
2021/10/02 11:02:42;;;;;;;;;;;;;;;18.23;65.58;98507.11;1634684;86;20262;-83
2021/10/02 11:05:30;;;;;;;;;;;;;;;18.26;65.48;98496.71;1642014;86;24759;-84
2021/10/02 11:07:56;;;;;;;;;;;;;;;18.33;65.33;98496.41;1633912;86;21936;-84
2021/10/02 11:10:24;;;;;;;;;;;;;;;18.35;65.19;98494.45;1636530;86;26028;-86
2021/10/02 11:12:53;;;;;;;;;;;;;;;18.41;65.06;98499.14;1618709;86;23939;-84
2021/10/02 11:15:26;;;;;;;;;;;;;;;18.48;64.94;98499.35;1637934;86;20507;-84
2021/10/02 11:17:58;;;;;;;;;;;;;;;18.52;64.77;98497.56;1635442;86;25374;-84
2021/10/02 11:20:29;;;;;;;;;;;;;;;18.56;64.60;98502.91;1638655;86;22096;-88
2021/10/02 11:23:13;;;;;;;;;;;;;;;18.58;64.46;98496.14;1633229;86;25827;-84
2021/10/02 11:25:37;;;;;;;;;;;;;;;18.62;64.33;98495.66;1630523;86;24468;-88
2021/10/02 11:28:25;;;;;;;;;;;;;;;18.67;64.23;98496.52;1640720;86;20146;-86
2021/10/02 11:30:53;;;;;;;;;;;;;;;18.66;64.12;98497.50;1625704;86;24809;-85
2021/10/02 11:33:30;;;;;;;;;;;;;;;18.70;64.01;98492.24;1633774;86;21997;-83
2021/10/02 11:35:55;;;;;;;;;;;;;;;18.76;63.86;98499.58;1633821;86;25999;-84
2021/10/02 11:38:35;;;;;;;;;;;;;;;18.82;63.75;98495.47;1643699;86;20311;-85
2021/10/02 11:41:01;;;;;;;;;;;;;;;18.88;63.65;98495.64;1633175;86;20221;-86
2021/10/02 11:43:29;;;;;;;;;;;;;;;18.91;63.44;98488.71;1633277;86;24807;-88
2021/10/02 11:45:56;;;;;;;;;;;;;;;18.96;63.33;98490.88;1633135;86;22172;-88
2021/10/02 11:48:32;;;;;;;;;;;;;;;18.97;63.20;98481.45;1648598;85;26011;-84
2021/10/02 11:51:12;;;;;;;;;;;;;;;19.02;63.02;98486.27;1641055;86;24423;-88
2021/10/02 11:53:54;;;;;;;;;;;;;;;19.09;62.87;98483.33;1642596;86;20225;-89
2021/10/02 11:56:22;;;;;;;;;;;;;;;19.11;62.73;98483.98;1640907;86;24857;-87
2021/10/02 11:58:50;;;;;;;;;;;;;;;19.13;62.51;98478.87;1637189;86;22072;-88
2021/10/02 12:01:17;;;;;;;;;;;;;;;19.17;62.35;98478.05;1637370;86;26009;-88
2021/10/02 12:03:43;;;;;;;;;;;;;;;19.22;62.21;98484.53;1637630;86;24325;-83
2021/10/02 12:06:09;;;;;;;;;;;;;;;19.25;62.09;98484.72;1636453;86;20260;-88
2021/10/02 12:08:37;;;;;;;;;;;;;;;19.27;61.96;98480.06;1630561;86;20216;-85
2021/10/02 12:11:04;;;;;;;;;;;;;;;19.26;61.75;98478.89;1629880;86;22801;-87
2021/10/02 12:13:32;;;;;;;;;;;;;;;19.29;61.58;98478.09;1643036;86;26041;-83
2021/10/02 12:16:06;;;;;;;;;;;;;;;19.32;61.48;98472.45;1643093;86;25397;-86
2021/10/02 12:18:43;;;;;;;;;;;;;;;19.36;61.39;98476.47;1634161;86;20335;-87
2021/10/02 12:21:26;;;;;;;;;;;;;;;19.42;61.33;98462.52;1615584;86;24772;-87
2021/10/02 12:23:57;;;;;;;;;;;;;;;19.46;61.20;98462.59;1631156;86;22062;-89
2021/10/02 12:26:24;;;;;;;;;;;;;;;19.48;61.03;98468.55;1630538;86;26547;-87
2021/10/02 12:29:00;;;;;;;;;;;;;;;19.47;60.91;98461.59;1642033;86;24530;-85
2021/10/02 12:31:41;;;;;;;;;;;;;;;19.50;60.78;98471.88;1630583;86;20259;-84
2021/10/02 12:34:12;;;;;;;;;;;;;;;19.51;60.62;98468.73;1618477;86;25441;-85
2021/10/02 12:36:48;;;;;;;;;;;;;;;19.56;60.41;98476.55;1632916;86;21483;-84
2021/10/02 12:39:10;;;;;;;;;;;;;;;19.60;60.26;98469.07;1636077;86;26907;-88
2021/10/02 12:41:41;;;;;;;;;;;;;;;19.63;60.06;98474.07;1634371;86;24498;-88
2021/10/02 12:44:08;;;;;;;;;;;;;;;19.61;59.84;98475.55;1633855;86;20578;-84
2021/10/02 12:46:37;;;;;;;;;;;;;;;19.61;59.64;98474.72;1635203;84;21848;-84
2021/10/02 12:49:03;;;;;;;;;;;;;;;19.61;59.50;98474.72;1629172;86;22026;-83
2021/10/02 12:51:31;;;;;;;;;;;;;;;19.66;59.46;98470.24;1636161;86;20986;-87
2021/10/02 12:53:56;;;;;;;;;;;;;;;19.70;59.37;98472.41;1634053;86;24473;-88
2021/10/02 12:56:22;;;;;;;;;;;;;;;19.72;59.24;98462.95;1633550;86;20756;-87
2021/10/02 12:58:48;;;;;;;;;;;;;;;19.74;59.05;98460.48;1626122;86;20771;-88
2021/10/02 13:01:14;;;;;;;;;;;;;;;19.78;58.91;98456.49;1634300;86;20356;-88
2021/10/02 13:03:44;;;;;;;;;;;;;;;19.81;58.81;98456.65;1630003;86;26009;-86
2021/10/02 13:06:10;;;;;;;;;;;;;;;19.84;58.75;98451.02;1637394;86;24727;-86
2021/10/02 13:08:36;;;;;;;;;;;;;;;19.85;58.57;98455.34;1639331;86;20532;-84
2021/10/02 13:11:02;;;;;;;;;;;;;;;19.85;58.29;98455.34;1640942;86;24764;-87
2021/10/02 13:13:28;;;;;;;;;;;;;;;19.85;58.13;98451.36;1642755;86;21974;-84
2021/10/02 13:16:00;;;;;;;;;;;;;;;19.86;58.01;98449.84;1634171;86;21280;-84
2021/10/02 13:18:27;;;;;;;;;;;;;;;19.85;57.90;98451.36;1631437;86;24466;-84
2021/10/02 13:20:59;;;;;;;;;;;;;;;19.83;57.69;98446.20;1638594;86;20258;-85
2021/10/02 13:23:36;;;;;;;;;;;;;;;19.82;57.57;98448.52;1637012;86;24753;-86
2021/10/02 13:26:18;;;;;;;;;;;;;;;19.83;57.48;98445.38;1636849;86;22044;-88
2021/10/02 13:28:46;;;;;;;;;;;;;;;19.82;57.34;98443.21;1632075;86;26122;-84
2021/10/02 13:31:17;;;;;;;;;;;;;;;19.85;57.36;98440.24;1630431;86;25427;-88
2021/10/02 13:33:44;;;;;;;;;;;;;;;19.90;57.30;98438.41;1648462;86;20250;-84
2021/10/02 13:36:20;;;;;;;;;;;;;;;19.91;57.20;98437.42;1630085;86;24777;-84
2021/10/02 13:38:48;;;;;;;;;;;;;;;19.92;57.03;98433.74;1627623;86;21960;-87
2021/10/02 13:41:17;;;;;;;;;;;;;;;19.95;56.87;98433.43;1640354;86;26151;-86
2021/10/02 13:43:54;;;;;;;;;;;;;;;19.98;56.79;98442.38;1633217;86;24420;-84
2021/10/02 13:46:24;;;;;;;;;;;;;;;19.94;56.66;98433.92;1633452;86;20328;-84
2021/10/02 13:48:49;;;;;;;;;;;;;;;19.85;56.65;98430.95;1626597;86;24769;-87